createdAt,value
2023-01-10T00:00:09.803Z, 45.88
2023-01-10T00:01:09.785Z, 45.78
2023-01-10T00:02:09.789Z, 45.74
2023-01-10T00:03:09.797Z, 45.67
2023-01-10T00:04:09.898Z, 45.66
2023-01-10T00:05:09.856Z, 45.59
2023-01-10T00:06:09.935Z, 45.60
2023-01-10T00:07:15.519Z, 45.59
2023-01-10T00:08:09.963Z, 45.60
2023-01-10T00:09:09.929Z, 45.60
2023-01-10T00:10:09.997Z, 45.53
2023-01-10T00:11:09.964Z, 45.44
2023-01-10T00:12:09.967Z, 45.43
2023-01-10T00:13:09.968Z, 45.37
2023-01-10T00:14:10.036Z, 45.33
2023-01-10T00:15:10.004Z, 45.25
2023-01-10T00:16:10.118Z, 45.20
2023-01-10T00:17:10.040Z, 45.19
2023-01-10T00:18:10.114Z, 45.11
2023-01-10T00:19:10.075Z, 45.16
2023-01-10T00:20:10.060Z, 45.06
2023-01-10T00:21:10.148Z, 45.07
2023-01-10T00:22:10.127Z, 44.94
2023-01-10T00:23:10.177Z, 44.91
2023-01-10T00:24:10.151Z, 44.93
2023-01-10T00:25:10.146Z, 44.95
2023-01-10T00:26:10.142Z, 44.94
2023-01-10T00:27:10.182Z, 44.86
2023-01-10T00:28:10.248Z, 44.87
2023-01-10T00:29:10.223Z, 44.85
2023-01-10T00:30:10.218Z, 44.81
2023-01-10T00:31:10.300Z, 44.76
2023-01-10T00:32:10.233Z, 44.72
2023-01-10T00:33:10.329Z, 44.66
2023-01-10T00:34:10.297Z, 44.66
2023-01-10T00:35:10.328Z, 44.62
2023-01-10T00:36:10.340Z, 44.53
2023-01-10T00:37:10.322Z, 44.51
2023-01-10T00:38:10.327Z, 44.42
2023-01-10T00:39:10.334Z, 44.44
2023-01-10T00:40:10.416Z, 44.52
2023-01-10T00:41:10.379Z, 44.40
2023-01-10T00:42:10.381Z, 44.33
2023-01-10T00:43:10.378Z, 44.34
2023-01-10T00:44:10.394Z, 44.32
2023-01-10T00:45:10.465Z, 44.26
2023-01-10T00:46:10.497Z, 44.24
2023-01-10T00:47:10.444Z, 44.21
2023-01-10T00:48:10.444Z, 44.15
2023-01-10T00:49:10.481Z, 44.11
2023-01-10T00:50:10.476Z, 44.11
2023-01-10T00:51:10.501Z, 44.10
2023-01-10T00:52:10.599Z, 44.08
2023-01-10T00:53:10.553Z, 43.96
2023-01-10T00:54:10.622Z, 43.90
2023-01-10T00:55:10.597Z, 43.85
2023-01-10T00:56:10.576Z, 43.77
2023-01-10T00:57:10.601Z, 43.87
2023-01-10T00:58:10.607Z, 43.81
2023-01-10T00:59:10.594Z, 43.73
2023-01-10T01:00:10.616Z, 43.68
2023-01-10T01:01:10.759Z, 43.76
2023-01-10T01:02:10.809Z, 43.75
2023-01-10T01:03:10.746Z, 43.68
2023-01-10T01:04:10.732Z, 43.60
2023-01-10T01:05:10.711Z, 43.62
2023-01-10T01:06:10.747Z, 43.58
2023-01-10T01:07:10.723Z, 43.48
2023-01-10T01:08:10.732Z, 43.47
2023-01-10T01:09:10.816Z, 43.44
2023-01-10T01:10:10.809Z, 43.40
2023-01-10T01:11:10.848Z, 43.39
2023-01-10T01:12:10.815Z, 43.36
2023-01-10T01:13:10.868Z, 43.39
2023-01-10T01:14:10.856Z, 43.30
2023-01-10T01:15:10.862Z, 43.41
2023-01-10T01:16:10.912Z, 43.29
2023-01-10T01:17:10.850Z, 43.32
2023-01-10T01:18:10.940Z, 43.25
2023-01-10T01:19:10.905Z, 43.20
2023-01-10T01:20:10.975Z, 43.17
2023-01-10T01:21:10.950Z, 43.16
2023-01-10T01:22:10.944Z, 43.14
2023-01-10T01:23:10.946Z, 43.07
2023-01-10T01:24:11.046Z, 43.02
2023-01-10T01:25:11.040Z, 42.99
2023-01-10T01:26:11.009Z, 43.02
2023-01-10T01:27:11.009Z, 43.00
2023-01-10T01:28:11.010Z, 42.91
2023-01-10T01:29:11.043Z, 42.82
2023-01-10T01:30:11.044Z, 42.87
2023-01-10T01:31:11.153Z, 42.85
2023-01-10T01:32:11.080Z, 42.82
2023-01-10T01:33:11.069Z, 42.81
2023-01-10T01:34:11.172Z, 42.79
2023-01-10T01:35:11.142Z, 42.77
2023-01-10T01:36:11.205Z, 42.72
2023-01-10T01:37:11.165Z, 42.68
2023-01-10T01:38:11.179Z, 42.73
2023-01-10T01:39:11.166Z, 42.69
2023-01-10T01:40:11.204Z, 42.60
2023-01-10T01:41:11.197Z, 42.62
2023-01-10T01:42:11.215Z, 42.52
2023-01-10T01:43:11.231Z, 42.51
2023-01-10T01:44:11.227Z, 42.52
2023-01-10T01:45:11.240Z, 42.44
2023-01-10T01:46:11.321Z, 42.45
2023-01-10T01:47:11.354Z, 42.41
2023-01-10T01:48:11.331Z, 42.31
2023-01-10T01:49:11.340Z, 42.33
2023-01-10T01:50:11.323Z, 42.35
2023-01-10T01:51:11.363Z, 42.28
2023-01-10T01:52:11.423Z, 42.24
2023-01-10T01:53:11.417Z, 42.25
2023-01-10T01:54:11.458Z, 42.26
2023-01-10T01:55:11.431Z, 42.24
2023-01-10T01:56:11.491Z, 42.16
2023-01-10T01:57:11.455Z, 42.17
2023-01-10T01:58:11.451Z, 42.17
2023-01-10T01:59:11.473Z, 42.09
2023-01-10T02:00:11.466Z, 42.09
2023-01-10T02:01:11.620Z, 42.14
2023-01-10T02:02:11.591Z, 42.04
2023-01-10T02:03:11.711Z, 42.00
2023-01-10T02:04:11.616Z, 41.99
2023-01-10T02:05:11.607Z, 41.96
2023-01-10T02:06:11.578Z, 41.90
2023-01-10T02:07:11.579Z, 41.83
2023-01-10T02:08:11.641Z, 41.88
2023-01-10T02:09:11.609Z, 41.88
2023-01-10T02:10:11.611Z, 41.84
2023-01-10T02:11:11.639Z, 41.84
2023-01-10T02:12:11.640Z, 41.84
2023-01-10T02:13:11.641Z, 41.78
2023-01-10T02:14:11.661Z, 41.78
2023-01-10T02:15:11.774Z, 41.81
2023-01-10T02:16:11.849Z, 41.69
2023-01-10T02:17:11.784Z, 41.64
2023-01-10T02:18:11.743Z, 41.65
2023-01-10T02:19:11.792Z, 41.55
2023-01-10T02:20:11.764Z, 41.53
2023-01-10T02:21:11.772Z, 41.50
2023-01-10T02:22:11.847Z, 41.49
2023-01-10T02:23:11.817Z, 41.50
2023-01-10T02:24:11.869Z, 41.45
2023-01-10T02:25:11.841Z, 41.44
2023-01-10T02:26:11.903Z, 41.44
2023-01-10T02:27:11.885Z, 41.40
2023-01-10T02:28:11.878Z, 41.37
2023-01-10T02:29:11.898Z, 41.31
2023-01-10T02:30:11.878Z, 41.31
2023-01-10T02:31:11.989Z, 41.25
2023-01-10T02:32:11.938Z, 41.29
2023-01-10T02:33:12.016Z, 41.31
2023-01-10T02:34:11.994Z, 41.27
2023-01-10T02:35:12.018Z, 41.22
2023-01-10T02:36:11.999Z, 41.24
2023-01-10T02:37:11.997Z, 41.14
2023-01-10T02:38:12.072Z, 41.14
2023-01-10T02:39:12.036Z, 41.11
2023-01-10T02:40:12.116Z, 41.10
2023-01-10T02:41:12.103Z, 41.05
2023-01-10T02:42:12.138Z, 41.08
2023-01-10T02:43:12.096Z, 41.06
2023-01-10T02:44:12.104Z, 41.04
2023-01-10T02:45:12.106Z, 40.95
2023-01-10T02:46:12.164Z, 40.92
2023-01-10T02:47:12.217Z, 40.94
2023-01-10T02:48:12.183Z, 41.02
2023-01-10T02:49:12.251Z, 40.95
2023-01-10T02:50:12.213Z, 40.85
2023-01-10T02:51:12.268Z, 40.81
2023-01-10T02:52:12.247Z, 40.77
2023-01-10T02:53:12.296Z, 40.77
2023-01-10T02:54:12.265Z, 40.81
2023-01-10T02:55:12.285Z, 40.75
2023-01-10T02:56:12.275Z, 40.71
2023-01-10T02:57:12.293Z, 40.75
2023-01-10T02:58:12.311Z, 40.66
2023-01-10T02:59:12.311Z, 40.61
2023-01-10T03:00:12.415Z, 40.58
2023-01-10T03:01:12.415Z, 40.60
2023-01-10T03:02:12.436Z, 40.57
2023-01-10T03:03:12.381Z, 40.54
2023-01-10T03:04:12.419Z, 40.49
2023-01-10T03:05:12.457Z, 40.48
2023-01-10T03:06:12.410Z, 40.44
2023-01-10T03:07:12.457Z, 40.43
2023-01-10T03:08:12.442Z, 40.37
2023-01-10T03:09:12.539Z, 40.35
2023-01-10T03:10:12.507Z, 40.40
2023-01-10T03:11:12.511Z, 40.38
2023-01-10T03:12:12.501Z, 40.38
2023-01-10T03:13:12.509Z, 40.38
2023-01-10T03:14:12.590Z, 40.30
2023-01-10T03:15:12.579Z, 40.33
2023-01-10T03:16:12.677Z, 40.30
2023-01-10T03:17:12.578Z, 40.27
2023-01-10T03:18:12.582Z, 40.24
2023-01-10T03:19:12.655Z, 40.23
2023-01-10T03:20:12.633Z, 40.18
2023-01-10T03:21:12.690Z, 40.19
2023-01-10T03:22:12.668Z, 40.15
2023-01-10T03:23:12.745Z, 40.15
2023-01-10T03:24:12.696Z, 40.11
2023-01-10T03:25:12.704Z, 40.09
2023-01-10T03:26:12.697Z, 40.00
2023-01-10T03:27:12.708Z, 40.02
2023-01-10T03:28:12.702Z, 40.01
2023-01-10T03:29:12.746Z, 39.99
2023-01-10T03:30:12.739Z, 39.95
2023-01-10T03:31:12.775Z, 39.98
2023-01-10T03:32:12.854Z, 39.90
2023-01-10T03:33:12.823Z, 39.93
2023-01-10T03:34:12.817Z, 39.94
2023-01-10T03:35:12.822Z, 39.81
2023-01-10T03:36:12.834Z, 39.75
2023-01-10T03:37:12.840Z, 39.73
2023-01-10T03:38:12.884Z, 39.75
2023-01-10T03:39:12.863Z, 39.71
2023-01-10T03:40:12.877Z, 39.69
2023-01-10T03:41:12.968Z, 39.71
2023-01-10T03:42:12.990Z, 39.72
2023-01-10T03:43:12.947Z, 39.63
2023-01-10T03:44:13.004Z, 39.59
2023-01-10T03:45:12.977Z, 39.56
2023-01-10T03:46:13.109Z, 39.56
2023-01-10T03:47:13.016Z, 39.55
2023-01-10T03:48:13.011Z, 39.51
2023-01-10T03:49:13.015Z, 39.52
2023-01-10T03:50:13.043Z, 39.50
2023-01-10T03:51:13.040Z, 39.50
2023-01-10T03:52:13.061Z, 39.46
2023-01-10T03:53:13.066Z, 39.43
2023-01-10T03:54:13.080Z, 39.35
2023-01-10T03:55:13.104Z, 39.41
2023-01-10T03:56:13.099Z, 39.37
2023-01-10T03:57:13.133Z, 39.29
2023-01-10T03:58:13.135Z, 39.31
2023-01-10T03:59:13.231Z, 39.29
2023-01-10T04:00:13.196Z, 39.29
2023-01-10T04:01:13.351Z, 39.27
2023-01-10T04:02:13.194Z, 39.26
2023-01-10T04:03:13.262Z, 39.22
2023-01-10T04:04:13.266Z, 39.18
2023-01-10T04:05:13.388Z, 39.18
2023-01-10T04:06:13.291Z, 39.22
2023-01-10T04:07:13.394Z, 39.15
2023-01-10T04:08:13.290Z, 39.09
2023-01-10T04:09:13.390Z, 39.11
2023-01-10T04:10:13.525Z, 39.10
2023-01-10T04:11:13.523Z, 39.09
2023-01-10T04:12:13.531Z, 39.07
2023-01-10T04:13:13.530Z, 39.11
2023-01-10T04:14:13.531Z, 39.09
2023-01-10T04:15:13.542Z, 39.05
2023-01-10T04:16:13.609Z, 39.06
2023-01-10T04:17:13.540Z, 39.02
2023-01-10T04:18:13.531Z, 39.01
2023-01-10T04:19:13.555Z, 38.97
2023-01-10T04:20:13.531Z, 38.98
2023-01-10T04:21:13.671Z, 38.91
2023-01-10T04:22:13.684Z, 38.94
2023-01-10T04:23:13.680Z, 38.95
2023-01-10T04:24:13.676Z, 38.97
2023-01-10T04:25:13.675Z, 38.95
2023-01-10T04:26:13.685Z, 38.85
2023-01-10T04:27:13.674Z, 38.79
2023-01-10T04:28:13.809Z, 38.74
2023-01-10T04:29:13.730Z, 38.70
2023-01-10T04:30:13.816Z, 38.68
2023-01-10T04:31:13.874Z, 38.92
2023-01-10T04:32:13.831Z, 40.41
2023-01-10T04:33:13.819Z, 40.94
2023-01-10T04:34:13.824Z, 40.98
2023-01-10T04:35:13.860Z, 40.92
2023-01-10T04:36:13.835Z, 40.84
2023-01-10T04:37:13.825Z, 40.74
2023-01-10T04:38:13.823Z, 40.47
2023-01-10T04:39:13.817Z, 40.17
2023-01-10T04:40:13.820Z, 39.67
2023-01-10T04:41:13.825Z, 39.01
2023-01-10T04:42:13.845Z, 38.31
2023-01-10T04:43:13.848Z, 37.41
2023-01-10T04:44:13.963Z, 36.51
2023-01-10T04:45:13.961Z, 35.46
2023-01-10T04:46:13.983Z, 34.81
2023-01-10T04:47:13.966Z, 37.44
2023-01-10T04:48:13.967Z, 41.00
2023-01-10T04:49:13.968Z, 43.76
2023-01-10T04:50:13.962Z, 45.87
2023-01-10T04:51:14.107Z, 45.83
2023-01-10T04:52:14.101Z, 43.34
2023-01-10T04:53:14.104Z, 40.71
2023-01-10T04:54:14.110Z, 38.14
2023-01-10T04:55:14.128Z, 35.85
2023-01-10T04:56:14.107Z, 33.44
2023-01-10T04:57:14.109Z, 30.36
2023-01-10T04:58:14.138Z, 29.22
2023-01-10T04:59:14.140Z, 34.38
2023-01-10T05:00:14.242Z, 40.21
2023-01-10T05:01:14.201Z, 44.61
2023-01-10T05:02:14.392Z, 46.70
2023-01-10T05:03:14.328Z, 48.63
2023-01-10T05:04:14.244Z, 47.47
2023-01-10T05:05:14.263Z, 45.96
2023-01-10T05:06:14.245Z, 44.49
2023-01-10T05:07:14.249Z, 43.07
2023-01-10T05:08:14.252Z, 41.73
2023-01-10T05:09:14.275Z, 40.34
2023-01-10T05:10:14.257Z, 39.10
2023-01-10T05:11:14.389Z, 37.95
2023-01-10T05:12:14.283Z, 36.76
2023-01-10T05:13:14.391Z, 35.49
2023-01-10T05:14:14.384Z, 34.29
2023-01-10T05:15:14.403Z, 33.41
2023-01-10T05:16:14.431Z, 33.29
2023-01-10T05:17:14.391Z, 40.45
2023-01-10T05:18:14.392Z, 47.99
2023-01-10T05:19:14.389Z, 52.86
2023-01-10T05:20:14.410Z, 52.92
2023-01-10T05:21:14.529Z, 51.09
2023-01-10T05:22:14.415Z, 49.71
2023-01-10T05:23:14.522Z, 48.92
2023-01-10T05:24:14.440Z, 48.11
2023-01-10T05:25:14.429Z, 47.32
2023-01-10T05:26:14.542Z, 46.55
2023-01-10T05:27:14.530Z, 45.85
2023-01-10T05:28:14.533Z, 45.06
2023-01-10T05:29:14.558Z, 44.24
2023-01-10T05:30:14.532Z, 43.45
2023-01-10T05:31:14.556Z, 42.70
2023-01-10T05:32:14.543Z, 42.02
2023-01-10T05:33:14.539Z, 41.37
2023-01-10T05:34:14.533Z, 40.76
2023-01-10T05:35:14.566Z, 40.17
2023-01-10T05:36:14.679Z, 39.71
2023-01-10T05:37:14.688Z, 39.90
2023-01-10T05:38:14.692Z, 43.44
2023-01-10T05:39:14.669Z, 46.70
2023-01-10T05:40:14.680Z, 50.20
2023-01-10T05:41:14.677Z, 53.95
2023-01-10T05:42:14.674Z, 57.78
2023-01-10T05:43:14.679Z, 62.37
2023-01-10T05:44:14.892Z, 64.74
2023-01-10T05:45:14.728Z, 52.23
2023-01-10T05:46:14.798Z, 53.26
2023-01-10T05:47:14.734Z, 54.39
2023-01-10T05:48:14.735Z, 56.25
2023-01-10T05:49:14.763Z, 59.08
2023-01-10T05:50:14.740Z, 66.40
2023-01-10T05:51:14.731Z, 59.15
2023-01-10T05:52:14.733Z, 52.99
2023-01-10T05:53:14.729Z, 54.18
2023-01-10T05:54:14.764Z, 55.38
2023-01-10T05:55:14.758Z, 57.72
2023-01-10T05:56:14.759Z, 60.86
2023-01-10T05:57:14.963Z, 67.54
2023-01-10T05:58:14.942Z, 53.11
2023-01-10T05:59:27.628Z, 53.54
2023-01-10T06:00:14.940Z, 54.35
2023-01-10T06:01:15.007Z, 55.47
2023-01-10T06:02:15.065Z, 53.21
2023-01-10T06:03:15.100Z, 50.71
2023-01-10T06:04:15.116Z, 48.59
2023-01-10T06:05:15.124Z, 46.80
2023-01-10T06:06:15.135Z, 45.61
2023-01-10T06:07:15.123Z, 44.92
2023-01-10T06:08:15.116Z, 44.21
2023-01-10T06:09:15.117Z, 43.50
2023-01-10T06:10:15.140Z, 42.87
2023-01-10T06:11:15.124Z, 42.16
2023-01-10T06:12:15.124Z, 41.57
2023-01-10T06:13:15.126Z, 41.08
2023-01-10T06:14:15.120Z, 40.61
2023-01-10T06:15:15.133Z, 40.17
2023-01-10T06:16:15.198Z, 39.85
2023-01-10T06:17:15.298Z, 40.16
2023-01-10T06:18:15.299Z, 40.24
2023-01-10T06:19:15.295Z, 40.19
2023-01-10T06:20:15.305Z, 40.01
2023-01-10T06:21:15.300Z, 39.86
2023-01-10T06:22:15.307Z, 39.84
2023-01-10T06:23:15.314Z, 39.83
2023-01-10T06:24:15.302Z, 39.75
2023-01-10T06:25:15.328Z, 39.69
2023-01-10T06:26:15.329Z, 39.62
2023-01-10T06:27:15.312Z, 39.58
2023-01-10T06:28:15.338Z, 39.52
2023-01-10T06:29:15.325Z, 39.41
2023-01-10T06:30:15.326Z, 39.34
2023-01-10T06:31:15.555Z, 39.25
2023-01-10T06:32:15.473Z, 39.17
2023-01-10T06:33:15.476Z, 39.09
2023-01-10T06:34:15.481Z, 38.97
2023-01-10T06:35:15.479Z, 38.89
2023-01-10T06:36:15.476Z, 38.81
2023-01-10T06:37:15.482Z, 38.71
2023-01-10T06:38:15.501Z, 38.63
2023-01-10T06:39:15.489Z, 38.51
2023-01-10T06:40:15.668Z, 38.45
2023-01-10T06:41:15.538Z, 38.39
2023-01-10T06:42:15.748Z, 38.30
2023-01-10T06:43:15.657Z, 38.21
2023-01-10T06:44:15.700Z, 38.12
2023-01-10T06:45:15.677Z, 38.03
2023-01-10T06:46:15.752Z, 37.95
2023-01-10T06:47:15.677Z, 37.87
2023-01-10T06:48:15.682Z, 37.76
2023-01-10T06:49:15.676Z, 37.68
2023-01-10T06:50:15.668Z, 37.62
2023-01-10T06:51:15.685Z, 37.54
2023-01-10T06:52:15.687Z, 37.47
2023-01-10T06:53:15.675Z, 37.38
2023-01-10T06:54:15.684Z, 37.31
2023-01-10T06:55:15.670Z, 37.23
2023-01-10T06:56:15.679Z, 37.17
2023-01-10T06:57:15.663Z, 37.12
2023-01-10T06:58:15.685Z, 37.05
2023-01-10T06:59:15.684Z, 37.02
2023-01-10T07:00:15.691Z, 36.94
2023-01-10T07:01:16.033Z, 36.89
2023-01-10T07:02:15.868Z, 36.83
2023-01-10T07:03:15.852Z, 36.77
2023-01-10T07:04:15.907Z, 36.72
2023-01-10T07:05:15.845Z, 36.65
2023-01-10T07:06:15.850Z, 36.57
2023-01-10T07:07:15.846Z, 36.53
2023-01-10T07:08:15.846Z, 36.48
2023-01-10T07:09:15.847Z, 36.45
2023-01-10T07:10:15.846Z, 36.39
2023-01-10T07:11:15.851Z, 36.37
2023-01-10T07:12:16.013Z, 36.30
2023-01-10T07:13:15.876Z, 36.28
2023-01-10T07:14:16.019Z, 36.25
2023-01-10T07:15:16.034Z, 36.23
2023-01-10T07:16:16.161Z, 36.13
2023-01-10T07:17:16.024Z, 36.10
2023-01-10T07:18:16.020Z, 36.06
2023-01-10T07:19:16.083Z, 36.01
2023-01-10T07:20:16.037Z, 35.97
2023-01-10T07:21:16.029Z, 36.00
2023-01-10T07:22:16.024Z, 35.94
2023-01-10T07:23:16.028Z, 35.91
2023-01-10T07:24:16.033Z, 35.85
2023-01-10T07:25:16.028Z, 35.83
2023-01-10T07:26:16.030Z, 35.81
2023-01-10T07:27:16.032Z, 35.76
2023-01-10T07:28:16.197Z, 35.75
2023-01-10T07:29:16.199Z, 35.70
2023-01-10T07:30:16.213Z, 35.69
2023-01-10T07:31:16.256Z, 35.63
2023-01-10T07:32:16.223Z, 35.62
2023-01-10T07:33:16.206Z, 35.63
2023-01-10T07:34:16.213Z, 35.60
2023-01-10T07:35:16.226Z, 35.61
2023-01-10T07:36:16.225Z, 35.55
2023-01-10T07:37:16.214Z, 35.53
2023-01-10T07:38:16.237Z, 35.51
2023-01-10T07:39:16.248Z, 35.48
2023-01-10T07:40:16.235Z, 35.45
2023-01-10T07:41:16.216Z, 35.42
2023-01-10T07:42:16.236Z, 35.41
2023-01-10T07:43:16.249Z, 35.34
2023-01-10T07:44:16.233Z, 35.29
2023-01-10T07:45:16.403Z, 35.27
2023-01-10T07:46:16.400Z, 35.31
2023-01-10T07:47:16.395Z, 35.31
2023-01-10T07:48:16.392Z, 35.26
2023-01-10T07:49:16.390Z, 35.22
2023-01-10T07:50:17.911Z, 35.26
2023-01-10T07:51:16.402Z, 35.22
2023-01-10T07:52:16.388Z, 35.20
2023-01-10T07:53:16.390Z, 35.19
2023-01-10T07:54:16.413Z, 35.18
2023-01-10T07:55:16.389Z, 35.16
2023-01-10T07:56:16.571Z, 35.07
2023-01-10T07:57:16.568Z, 35.05
2023-01-10T07:58:16.562Z, 35.01
2023-01-10T07:59:16.564Z, 35.04
2023-01-10T08:00:18.698Z, 35.01
2023-01-10T08:01:16.623Z, 34.99
2023-01-10T08:02:16.633Z, 35.02
2023-01-10T08:03:16.706Z, 35.02
2023-01-10T08:04:16.576Z, 34.98
2023-01-10T08:05:16.569Z, 34.95
2023-01-10T08:06:16.906Z, 34.90
2023-01-10T08:07:16.579Z, 34.90
2023-01-10T08:08:16.747Z, 34.87
2023-01-10T08:09:16.575Z, 34.85
2023-01-10T08:10:16.602Z, 34.84
2023-01-10T08:11:16.602Z, 34.82
2023-01-10T08:12:16.576Z, 34.79
2023-01-10T08:13:19.095Z, 34.78
2023-01-10T08:14:16.793Z, 34.80
2023-01-10T08:15:16.747Z, 34.75
2023-01-10T08:16:16.839Z, 34.74
2023-01-10T08:17:16.744Z, 34.77
2023-01-10T08:18:16.745Z, 34.74
2023-01-10T08:19:16.796Z, 34.75
2023-01-10T08:20:16.812Z, 34.69
2023-01-10T08:21:16.751Z, 34.68
2023-01-10T08:22:16.768Z, 34.66
2023-01-10T08:23:16.756Z, 34.65
2023-01-10T08:24:16.755Z, 34.66
2023-01-10T08:25:16.806Z, 34.65
2023-01-10T08:26:16.785Z, 34.66
2023-01-10T08:27:16.836Z, 34.62
2023-01-10T08:28:16.790Z, 34.57
2023-01-10T08:29:16.788Z, 34.58
2023-01-10T08:30:16.793Z, 34.56
2023-01-10T08:31:16.904Z, 34.54
2023-01-10T08:32:16.826Z, 34.55
2023-01-10T08:33:16.817Z, 34.48
2023-01-10T08:34:16.823Z, 34.43
2023-01-10T08:35:16.822Z, 34.43
2023-01-10T08:36:16.818Z, 34.42
2023-01-10T08:37:16.833Z, 34.42
2023-01-10T08:38:16.823Z, 34.38
2023-01-10T08:39:16.826Z, 34.39
2023-01-10T08:40:16.871Z, 34.37
2023-01-10T08:41:16.821Z, 34.33
2023-01-10T08:42:16.825Z, 34.31
2023-01-10T08:43:16.847Z, 34.33
2023-01-10T08:44:16.845Z, 34.31
2023-01-10T08:45:16.892Z, 34.30
2023-01-10T08:46:16.938Z, 34.32
2023-01-10T08:47:16.936Z, 34.27
2023-01-10T08:48:16.906Z, 34.25
2023-01-10T08:49:16.898Z, 34.23
2023-01-10T08:50:16.894Z, 34.25
2023-01-10T08:51:16.916Z, 34.22
2023-01-10T08:52:16.901Z, 34.16
2023-01-10T08:53:16.949Z, 34.14
2023-01-10T08:54:16.930Z, 34.09
2023-01-10T08:55:16.965Z, 34.11
2023-01-10T08:56:16.953Z, 34.12
2023-01-10T08:57:16.954Z, 34.13
2023-01-10T08:58:16.967Z, 34.16
2023-01-10T08:59:16.970Z, 34.11
2023-01-10T09:00:16.982Z, 34.10
2023-01-10T09:01:17.165Z, 34.08
2023-01-10T09:02:17.060Z, 34.08
2023-01-10T09:03:17.120Z, 34.06
2023-01-10T09:04:17.064Z, 34.06
2023-01-10T09:05:27.012Z, 34.03
2023-01-10T09:06:17.043Z, 33.99
2023-01-10T09:07:17.374Z, 33.99
2023-01-10T09:08:17.099Z, 33.96
2023-01-10T09:09:17.100Z, 34.00
2023-01-10T09:10:17.093Z, 34.00
2023-01-10T09:11:17.143Z, 33.97
2023-01-10T09:12:17.128Z, 33.91
2023-01-10T09:13:17.207Z, 33.91
2023-01-10T09:14:17.141Z, 33.96
2023-01-10T09:15:17.141Z, 33.91
2023-01-10T09:16:17.147Z, 33.89
2023-01-10T09:17:17.149Z, 33.84
2023-01-10T09:18:17.165Z, 33.83
2023-01-10T09:19:17.171Z, 33.89
2023-01-10T09:20:17.257Z, 33.91
2023-01-10T09:21:17.223Z, 33.87
2023-01-10T09:22:17.409Z, 33.85
2023-01-10T09:23:17.243Z, 33.86
2023-01-10T09:24:17.312Z, 33.80
2023-01-10T09:25:17.282Z, 33.79
2023-01-10T09:26:17.280Z, 33.75
2023-01-10T09:27:17.276Z, 33.77
2023-01-10T09:28:17.276Z, 33.79
2023-01-10T09:29:17.334Z, 33.73
2023-01-10T09:30:17.320Z, 33.69
2023-01-10T09:31:17.434Z, 33.67
2023-01-10T09:32:17.317Z, 33.67
2023-01-10T09:33:17.335Z, 33.68
2023-01-10T09:34:17.419Z, 33.69
2023-01-10T09:35:17.385Z, 33.67
2023-01-10T09:36:17.401Z, 33.65
2023-01-10T09:37:17.457Z, 33.61
2023-01-10T09:38:17.392Z, 33.62
2023-01-10T09:39:17.443Z, 33.62
2023-01-10T09:40:17.408Z, 33.59
2023-01-10T09:41:17.488Z, 33.61
2023-01-10T09:42:17.454Z, 33.61
2023-01-10T09:43:17.473Z, 33.56
2023-01-10T09:44:17.452Z, 33.57
2023-01-10T09:45:17.448Z, 33.56
2023-01-10T09:46:17.492Z, 33.54
2023-01-10T09:47:22.403Z, 33.52
2023-01-10T09:48:17.462Z, 33.50
2023-01-10T09:49:17.521Z, 33.48
2023-01-10T09:50:17.519Z, 33.50
2023-01-10T09:51:17.505Z, 33.46
2023-01-10T09:52:17.572Z, 33.44
2023-01-10T09:53:17.540Z, 33.46
2023-01-10T09:54:17.583Z, 33.42
2023-01-10T09:55:17.554Z, 33.39
2023-01-10T09:56:17.596Z, 33.35
2023-01-10T09:57:17.581Z, 33.38
2023-01-10T09:58:17.622Z, 33.39
2023-01-10T09:59:17.602Z, 33.35
2023-01-10T10:00:17.601Z, 33.34
2023-01-10T10:01:17.657Z, 33.34
2023-01-10T10:02:17.616Z, 33.34
2023-01-10T10:03:17.760Z, 33.29
2023-01-10T10:04:17.742Z, 33.28
2023-01-10T10:05:17.644Z, 33.28
2023-01-10T10:06:17.686Z, 33.23
2023-01-10T10:07:17.699Z, 33.24
2023-01-10T10:08:17.751Z, 33.26
2023-01-10T10:09:17.716Z, 33.22
2023-01-10T10:10:17.812Z, 33.18
2023-01-10T10:11:17.720Z, 33.15
2023-01-10T10:12:17.729Z, 33.17
2023-01-10T10:13:26.952Z, 33.20
2023-01-10T10:14:17.761Z, 33.14
2023-01-10T10:15:17.762Z, 33.16
2023-01-10T10:16:17.808Z, 33.15
2023-01-10T10:17:17.767Z, 33.15
2023-01-10T10:18:17.785Z, 33.12
2023-01-10T10:19:17.789Z, 33.08
2023-01-10T10:20:17.891Z, 33.10
2023-01-10T10:21:17.834Z, 33.08
2023-01-10T10:22:19.801Z, 33.05
2023-01-10T10:23:17.870Z, 33.08
2023-01-10T10:24:17.875Z, 33.08
2023-01-10T10:25:17.870Z, 33.06
2023-01-10T10:26:17.884Z, 33.07
2023-01-10T10:27:17.967Z, 33.08
2023-01-10T10:28:17.930Z, 33.02
2023-01-10T10:29:17.980Z, 33.01
2023-01-10T10:30:17.930Z, 32.99
2023-01-10T10:31:18.067Z, 33.00
2023-01-10T10:32:17.977Z, 32.98
2023-01-10T10:33:17.969Z, 32.97
2023-01-10T10:34:17.972Z, 32.98
2023-01-10T10:35:17.983Z, 32.96
2023-01-10T10:36:18.019Z, 32.94
2023-01-10T10:37:17.999Z, 32.87
2023-01-10T10:38:18.082Z, 32.88
2023-01-10T10:39:18.076Z, 32.92
2023-01-10T10:40:18.125Z, 32.85
2023-01-10T10:41:18.099Z, 32.80
2023-01-10T10:42:18.147Z, 32.83
2023-01-10T10:43:18.112Z, 32.80
2023-01-10T10:44:18.113Z, 32.83
2023-01-10T10:45:18.214Z, 32.85
2023-01-10T10:46:18.185Z, 32.79
2023-01-10T10:47:18.177Z, 32.80
2023-01-10T10:50:29.843Z, 32.75
2023-01-10T10:51:18.244Z, 32.73
2023-01-10T10:52:18.311Z, 32.77
2023-01-10T10:53:18.265Z, 32.75
2023-01-10T10:54:18.279Z, 32.76
2023-01-10T10:55:18.261Z, 32.70
2023-01-10T10:56:18.355Z, 32.70
2023-01-10T10:57:18.326Z, 32.72
2023-01-10T10:58:18.334Z, 32.69
2023-01-10T10:59:18.324Z, 32.67
2023-01-10T11:00:18.329Z, 32.67
2023-01-10T11:01:18.481Z, 33.01
2023-01-10T11:02:18.346Z, 34.00
2023-01-10T11:03:18.430Z, 35.71
2023-01-10T11:04:18.409Z, 43.46
2023-01-10T11:05:18.433Z, 47.69
2023-01-10T11:06:18.410Z, 46.89
2023-01-10T11:07:18.505Z, 44.78
2023-01-10T11:08:18.487Z, 42.69
2023-01-10T11:09:18.552Z, 40.72
2023-01-10T11:10:18.490Z, 39.18
2023-01-10T11:11:18.497Z, 37.96
2023-01-10T11:12:18.527Z, 36.53
2023-01-10T11:13:18.531Z, 35.09
2023-01-10T11:14:18.591Z, 33.85
2023-01-10T11:15:18.624Z, 32.61
2023-01-10T11:16:18.608Z, 31.00
2023-01-10T11:17:18.551Z, 29.40
2023-01-10T11:18:18.580Z, 32.22
2023-01-10T11:19:18.583Z, 37.24
2023-01-10T11:20:18.600Z, 41.34
2023-01-10T11:21:21.046Z, 44.38
2023-01-10T11:22:18.636Z, 46.73
2023-01-10T11:23:18.685Z, 46.90
2023-01-10T11:24:18.658Z, 45.23
2023-01-10T11:25:18.672Z, 43.44
2023-01-10T11:26:18.670Z, 41.63
2023-01-10T11:27:18.685Z, 39.91
2023-01-10T11:28:18.701Z, 38.36
2023-01-10T11:29:18.717Z, 36.94
2023-01-10T11:30:18.801Z, 35.52
2023-01-10T11:31:18.813Z, 34.84
2023-01-10T11:32:18.804Z, 34.65
2023-01-10T11:33:18.779Z, 34.56
2023-01-10T11:34:18.858Z, 34.51
2023-01-10T11:35:18.828Z, 34.90
2023-01-10T11:36:18.824Z, 35.13
2023-01-10T11:37:18.875Z, 35.24
2023-01-10T11:38:18.865Z, 35.30
2023-01-10T11:39:18.869Z, 35.30
2023-01-10T11:40:18.870Z, 35.30
2023-01-10T11:41:18.885Z, 35.25
2023-01-10T11:42:18.893Z, 35.21
2023-01-10T11:43:18.901Z, 35.14
2023-01-10T11:44:18.978Z, 35.06
2023-01-10T11:45:18.966Z, 35.00
2023-01-10T11:46:19.083Z, 34.92
2023-01-10T11:47:18.988Z, 34.83
2023-01-10T11:48:19.390Z, 34.76
2023-01-10T11:49:19.045Z, 34.68
2023-01-10T11:50:19.034Z, 34.59
2023-01-10T11:51:19.104Z, 34.50
2023-01-10T11:52:19.040Z, 34.43
2023-01-10T11:53:19.046Z, 34.33
2023-01-10T11:54:19.041Z, 34.25
2023-01-10T11:55:19.051Z, 34.15
2023-01-10T11:56:19.072Z, 34.05
2023-01-10T11:57:19.088Z, 33.97
2023-01-10T11:58:19.168Z, 33.86
2023-01-10T11:59:19.152Z, 33.77
2023-01-10T12:00:19.209Z, 33.67
2023-01-10T12:01:19.217Z, 33.59
2023-01-10T12:02:19.278Z, 33.51
2023-01-10T12:03:19.221Z, 33.40
2023-01-10T12:04:19.204Z, 33.33
2023-01-10T12:05:19.230Z, 33.23
2023-01-10T12:06:19.196Z, 33.13
2023-01-10T12:07:19.205Z, 33.03
2023-01-10T12:08:19.235Z, 32.94
2023-01-10T12:09:19.244Z, 32.84
2023-01-10T12:10:21.066Z, 32.73
2023-01-10T12:11:19.353Z, 32.65
2023-01-10T12:12:19.311Z, 32.53
2023-01-10T12:13:19.317Z, 32.40
2023-01-10T12:14:19.315Z, 32.30
2023-01-10T12:15:19.380Z, 32.23
2023-01-10T12:16:19.412Z, 32.14
2023-01-10T12:17:19.364Z, 32.05
2023-01-10T12:18:19.373Z, 31.97
2023-01-10T12:19:19.384Z, 31.90
2023-01-10T12:20:19.499Z, 31.80
2023-01-10T12:21:19.443Z, 31.73
2023-01-10T12:22:19.466Z, 31.63
2023-01-10T12:23:19.476Z, 31.56
2023-01-10T12:24:19.503Z, 31.48
2023-01-10T12:25:19.467Z, 31.41
2023-01-10T12:26:19.478Z, 31.35
2023-01-10T12:27:19.553Z, 31.28
2023-01-10T12:28:19.535Z, 31.22
2023-01-10T12:29:19.568Z, 31.18
2023-01-10T12:30:19.551Z, 31.11